Flight Track Log - Related Links

Times and Time Zones

All times are in EDT time to prevent confusion due to time zone crossing. See the AAY824 flight status page for this flight to view local times or setup timezone preferences in your user account.

Time Position Orientation Groundspeed Altitude Reporting Facility
EDT Latitude Longitude Course Direction KTS MPH feet Rate Location/Type
Mon 08:06:51 AM 27.9500 -82.7000 330° Northwest 169 194 1,600  Level Tampa TRACON
Mon 08:07:27 AM 27.9833 -82.6833 24° Northeast 205 236 2,900 1,667 Climbing Tampa TRACON
Mon 08:08:21 AM 28.0333 -82.6667 16° North 264 304 4,100 579 Climbing Tampa TRACON
Mon 08:09:21 AM 28.1167 -82.6667 360° North 278 320 4,000 1,529 Descending Tampa TRACON
Mon 08:10:54 AM 28.2281 -82.6764 356° North 280 322 8,000 2,609 Climbing Miami Center
Mon 08:11:39 AM 28.2894 -82.6828 355° North 279 321 10,000 1,943 Climbing Jacksonville Center
Mon 08:12:00 AM 28.7092 -83.1839 330° Northwest  Level FlightAware Approximate
Mon 08:12:39 AM 28.3731 -82.7133 342° North 294 338 11,400  Level Jacksonville Center
Mon 08:13:39 AM 28.4669 -82.7650 334° Northwest 326 375 12,600 1,500 Climbing Jacksonville Center
Mon 08:14:39 AM 28.5547 -82.8122 335° Northwest 394 453 14,400 1,900 Climbing Jacksonville Center
Mon 08:15:39 AM 28.6611 -82.8714 334° Northwest 400 460 16,400 2,050 Climbing Jacksonville Center
Mon 08:16:39 AM 28.7803 -82.9375 334° Northwest 416 479 18,500 1,850 Climbing Jacksonville Center
Mon 08:17:39 AM 28.8928 -82.9994 334° Northwest 429 494 20,100 1,550 Climbing Jacksonville Center
Mon 08:18:39 AM 29.0075 -83.0589 336° Northwest 439 505 21,600 1,350 Climbing Jacksonville Center
Mon 08:19:39 AM 29.1264 -83.1231 335° Northwest 457 526 22,800 1,350 Climbing Jacksonville Center
Mon 08:20:39 AM 29.2494 -83.1878 335° Northwest 463 533 24,300 1,550 Climbing Jacksonville Center
Mon 08:21:39 AM 29.3619 -83.2594 331° Northwest 469 540 25,900 1,650 Climbing Jacksonville Center
Mon 08:22:39 AM 29.4725 -83.3386 328° Northwest 464 534 27,600 1,350 Climbing Jacksonville Center
Mon 08:23:39 AM 29.5722 -83.4083 329° Northwest 464 534 28,600 1,150 Climbing Jacksonville Center
Mon 08:24:39 AM 29.6825 -83.4903 327° Northwest 464 534 29,900 1,240 Climbing Jacksonville Center
Mon 08:25:40 AM 29.7928 -83.5675 329° Northwest 464 534 31,100 1,050 Climbing Jacksonville Center
Mon 08:26:39 AM 29.9011 -83.6472 327° Northwest 464 534 32,000 454 Climbing Jacksonville Center
Mon 08:27:39 AM 30.0092 -83.7250 328° Northwest 464 534 32,000  Level Jacksonville Center
Mon 08:28:39 AM 30.1172 -83.8028 328° Northwest 464 534 32,000  Level Jacksonville Center
Mon 08:29:39 AM 30.2231 -83.8831 327° Northwest 459 528 32,000  Level Jacksonville Center
Mon 08:30:39 AM 30.3331 -83.9611 329° Northwest 459 528 32,000  Level Jacksonville Center
Mon 08:31:40 AM 30.4389 -84.0394 327° Northwest 459 528 32,000  Level Jacksonville Center
Mon 08:32:39 AM 30.5592 -84.1253 328° Northwest 465 535 32,000  Level Jacksonville Center
Mon 08:33:39 AM 30.6647 -84.2064 327° Northwest 459 528 32,000  Level Jacksonville Center
Mon 08:34:39 AM 30.7725 -84.2878 327° Northwest 459 528 32,000  Level Jacksonville Center
Mon 08:35:39 AM 30.8803 -84.3642 329° Northwest 465 535 32,000  Level Jacksonville Center
Mon 08:36:39 AM 30.9692 -84.4311 327° Northwest 465 535 32,000  Level Jacksonville Center
Mon 08:37:39 AM 31.0850 -84.5178 327° Northwest 460 529 32,000  Level Jacksonville Center
Mon 08:38:39 AM 31.1925 -84.6000 327° Northwest 460 529 32,000  Level Jacksonville Center
Mon 08:40:26 AM 31.3814 -84.7394 328° Northwest 454 522 32,000  Level Atlanta Center
Mon 08:41:26 AM 31.4875 -84.8206 327° Northwest 454 522 32,000  Level Atlanta Center
Mon 08:42:26 AM 31.5933 -84.9019 327° Northwest 454 522 32,000  Level Atlanta Center
Mon 08:43:26 AM 31.6992 -84.9811 328° Northwest 454 522 32,000  Level Atlanta Center
Mon 08:44:26 AM 31.8050 -85.0603 328° Northwest 454 522 32,000  Level Atlanta Center
Mon 08:45:26 AM 31.9128 -85.1375 329° Northwest 459 528 32,000  Level Atlanta Center
Mon 08:46:26 AM 32.0186 -85.2194 327° Northwest 459 528 32,000  Level Atlanta Center
Mon 08:47:26 AM 32.1242 -85.2994 327° Northwest 459 528 32,000  Level Atlanta Center
Mon 08:48:26 AM 32.2278 -85.3819 326° Northwest 459 528 32,000  Level Atlanta Center
Mon 08:49:26 AM 32.3353 -85.4622 328° Northwest 459 528 32,000  Level Atlanta Center
Mon 08:50:26 AM 32.4408 -85.5425 327° Northwest 459 528 32,000  Level Atlanta Center
Mon 08:51:26 AM 32.5464 -85.6208 328° Northwest 459 528 32,000  Level Atlanta Center
Mon 08:52:26 AM 32.6517 -85.7067 326° Northwest 459 528 32,000  Level Atlanta Center
Mon 08:53:26 AM 32.7569 -85.7850 328° Northwest 459 528 32,000  Level Atlanta Center
Mon 08:54:26 AM 32.8622 -85.8689 326° Northwest 459 528 32,000  Level Atlanta Center
Mon 08:55:26 AM 32.9653 -85.9528 326° Northwest 459 528 32,000  Level Atlanta Center
Mon 08:56:26 AM 33.0706 -86.0294 329° Northwest 459 528 32,000  Level Atlanta Center
Mon 08:57:26 AM 33.1756 -86.1161 325° Northwest 459 528 32,000  Level Atlanta Center
Mon 08:58:26 AM 33.2786 -86.1981 326° Northwest 459 528 32,000  Level Atlanta Center
Mon 08:59:26 AM 33.3836 -86.2803 327° Northwest 459 528 32,000  Level Atlanta Center
Mon 09:00:26 AM 33.4864 -86.3653 325° Northwest 459 528 32,000  Level Atlanta Center
Mon 09:01:26 AM 33.5994 -86.4531 327° Northwest 453 521 32,000  Level Atlanta Center
Mon 09:02:26 AM 33.7022 -86.5333 327° Northwest 443 510 32,000  Level Atlanta Center
Mon 09:03:26 AM 33.8047 -86.6189 325° Northwest 443 510 32,000  Level Atlanta Center
Mon 09:04:26 AM 33.9075 -86.7019 326° Northwest 443 510 32,000  Level Atlanta Center
Mon 09:05:07 AM 33.9644 -86.7475 326° Northwest 447 514 32,000  Level Memphis Center
Mon 09:06:09 AM 34.0675 -86.8314 326° Northwest 448 516 32,000  Level Memphis Center
Mon 09:07:11 AM 34.1917 -86.9303 327° Northwest 448 516 32,000  Level Memphis Center
Mon 09:08:13 AM 34.2950 -87.0150 326° Northwest 448 516 32,000  Level Memphis Center
Mon 09:09:15 AM 34.3975 -87.0961 327° Northwest 448 516 32,000  Level Memphis Center
Mon 09:10:17 AM 34.4992 -87.1786 326° Northwest 447 514 32,000  Level Memphis Center
Mon 09:11:19 AM 34.6197 -87.2786 326° Northwest 447 514 32,000  Level Memphis Center
Mon 09:12:21 AM 34.7203 -87.3622 326° Northwest 446 513 32,000  Level Memphis Center
Mon 09:13:23 AM 34.8217 -87.4472 325° Northwest 446 513 32,000  Level Memphis Center
Mon 09:14:25 AM 34.9250 -87.5311 326° Northwest 446 513 32,000  Level Memphis Center
Mon 09:15:27 AM 35.0256 -87.6167 325° Northwest 446 513 32,000  Level Memphis Center
Mon 09:16:29 AM 35.1469 -87.7169 326° Northwest 445 512 32,000  Level Memphis Center
Mon 09:17:31 AM 35.2467 -87.8014 325° Northwest 444 511 32,000  Level Memphis Center
Mon 09:18:33 AM 35.3461 -87.8847 326° Northwest 438 504 32,000  Level Memphis Center
Mon 09:19:35 AM 35.4550 -87.9761 326° Northwest 436 502 32,000  Level Memphis Center
Mon 09:20:37 AM 35.5539 -88.0603 325° Northwest 432 497 32,000  Level Memphis Center
Mon 09:21:40 AM 35.6522 -88.1422 326° Northwest 426 490 32,000  Level Memphis Center
Mon 09:22:42 AM 35.7467 -88.2233 325° Northwest 421 484 32,000  Level Memphis Center
Mon 09:23:44 AM 35.8439 -88.3050 326° Northwest 421 484 32,000  Level Memphis Center
Mon 09:24:46 AM 35.9408 -88.3875 325° Northwest 421 484 32,000  Level Memphis Center
Mon 09:25:48 AM 36.0561 -88.4861 325° Northwest 422 486 32,000  Level Memphis Center
Mon 09:26:50 AM 36.1519 -88.5692 325° Northwest 421 484 32,000  Level Memphis Center
Mon 09:27:52 AM 36.2475 -88.6511 325° Northwest 421 484 32,000  Level Memphis Center
Mon 09:28:54 AM 36.3419 -88.7333 325° Northwest 421 484 32,000  Level Memphis Center
Mon 09:29:56 AM 36.4372 -88.8147 326° Northwest 420 483 32,000  Level Memphis Center
Mon 09:30:58 AM 36.5508 -88.9142 325° Northwest 420 483 32,000  Level Memphis Center
Mon 09:32:00 AM 36.6450 -88.9964 325° Northwest 420 483 32,000  Level Memphis Center
Mon 09:33:02 AM 36.7389 -89.0792 325° Northwest 419 482 32,000  Level Memphis Center
Mon 09:34:04 AM 36.8331 -89.1619 325° Northwest 418 481 32,000  Level Memphis Center
Mon 09:35:06 AM 36.9267 -89.2436 325° Northwest 416 479 32,000  Level Memphis Center
Mon 09:36:08 AM 37.0197 -89.3275 324° Northwest 416 479 32,000  Level Memphis Center
Mon 09:37:10 AM 37.1319 -89.4256 325° Northwest 415 478 32,000  Level Memphis Center
Mon 09:38:12 AM 37.2247 -89.5117 324° Northwest 415 478 32,000  Level Memphis Center
Mon 09:39:14 AM 37.3186 -89.5939 325° Northwest 414 476 32,000  Level Memphis Center
Mon 09:40:17 AM 37.4131 -89.6786 325° Northwest 414 476 32,000  Level Memphis Center
Mon 09:41:19 AM 37.5075 -89.7622 325° Northwest 415 478 32,000  Level Memphis Center
Mon 09:42:21 AM 37.6019 -89.8483 324° Northwest 415 478 32,000  Level Memphis Center
Mon 09:43:23 AM 37.7164 -89.9506 325° Northwest 416 479 32,000  Level Memphis Center
Mon 09:44:38 AM 37.8314 -90.0547 324° Northwest 418 481 32,000  Level Kansas City Center
Mon 09:45:42 AM 37.9275 -90.1439 324° Northwest 424 488 32,000  Level Kansas City Center
Mon 09:46:42 AM 38.0239 -90.2314 324° Northwest 424 488 32,000  Level Kansas City Center
Mon 09:47:46 AM 38.1200 -90.3206 324° Northwest 425 489 32,000  Level Kansas City Center
Mon 09:48:46 AM 38.2169 -90.4069 325° Northwest 425 489 32,000  Level Kansas City Center
Mon 09:49:50 AM 38.3122 -90.4972 323° Northwest 425 489 32,000  Level Kansas City Center
Mon 09:50:51 AM 38.4283 -90.6050 324° Northwest 426 490 32,000  Level Kansas City Center
Mon 09:51:52 AM 38.5267 -90.6969 324° Northwest 428 493 32,000  Level Kansas City Center
Mon 09:52:56 AM 38.6256 -90.7892 324° Northwest 431 496 32,000  Level Kansas City Center
Mon 09:53:56 AM 38.7217 -90.8789 324° Northwest 430 495 32,000  Level Kansas City Center
Mon 09:55:00 AM 38.8142 -90.9667 324° Northwest 419 482 32,000  Level Kansas City Center
Mon 09:56:02 AM 38.9058 -91.0539 323° Northwest 414 476 32,000  Level Kansas City Center
Mon 09:57:02 AM 38.9997 -91.1419 324° Northwest 414 476 32,000  Level Kansas City Center
Mon 09:58:07 AM 39.1114 -91.2486 323° Northwest 414 476 32,000  Level Kansas City Center
Mon 09:59:07 AM 39.2031 -91.3381 323° Northwest 414 476 32,000  Level Kansas City Center
Mon 10:00:10 AM 39.2953 -91.4250 324° Northwest 414 476 32,000  Level Kansas City Center
Mon 10:01:12 AM 39.3867 -91.5153 323° Northwest 413 475 32,000  Level Kansas City Center
Mon 10:02:13 AM 39.4811 -91.6036 324° Northwest 414 476 32,000  Level Kansas City Center
Mon 10:03:16 AM 39.5775 -91.6964 323° Northwest 415 478 32,000  Level Kansas City Center
Mon 10:04:17 AM 39.6672 -91.7839 323° Northwest 413 475 32,000  Level Kansas City Center
Mon 10:05:19 AM 39.7725 -91.8892 322° Northwest 407 468 32,000  Level Kansas City Center
Mon 10:06:22 AM 39.8650 -91.9747 325° Northwest 408 470 32,000  Level Kansas City Center
Mon 10:07:23 AM 39.9561 -92.0656 323° Northwest 414 476 32,000  Level Kansas City Center
Mon 10:08:27 AM 40.0458 -92.1528 323° Northwest 413 475 32,000  Level Kansas City Center
Mon 10:09:27 AM 40.1531 -92.2625 322° Northwest 412 474 32,000  Level Kansas City Center
Mon 10:10:33 AM 40.2450 -92.3503 324° Northwest 413 475 32,000  Level Kansas City Center
Mon 10:11:33 AM 40.3394 -92.4428 323° Northwest 419 482 32,000  Level Kansas City Center
Mon 10:12:33 AM 40.4353 -92.5381 323° Northwest 426 490 32,000 -484 Level Kansas City Center
Mon 10:13:37 AM 40.5286 -92.6333 322° Northwest 427 491 31,000 -1,968 Descending Kansas City Center
Mon 10:14:38 AM 40.6300 -92.7353 323° Northwest 422 486 27,900 -3,312 Descending Kansas City Center
Mon 10:15:42 AM 40.7228 -92.8303 322° Northwest 422 486 24,100 -3,289 Descending Kansas City Center
Mon 10:16:53 AM 40.8356 -92.9428 323° Northwest 426 490 20,500 -3,851 Descending Chicago Center
Mon 10:17:56 AM 40.9414 -93.0486 323° Northwest 408 470 15,500 -4,016 Descending Chicago Center
Mon 10:18:57 AM 41.0228 -93.1300 323° Northwest 376 433 12,200 -2,146 Descending Chicago Center
Mon 10:19:59 AM 41.0928 -93.1978 324° Northwest 323 372 11,100 -1,200 Descending Chicago Center
Mon 10:21:02 AM 41.1617 -93.2525 329° Northwest 294 338 9,700 -1,485 Descending Chicago Center
Mon 10:21:40 AM 41.2181 -93.2792 340° North 278 320 8,600 -1,727 Descending Minneapolis Center
Mon 10:22:08 AM 41.2442 -93.3075 321° Northwest 282 325 7,800 -1,869 Descending Minneapolis Center
Mon 10:22:41 AM 41.2919 -93.3294 341° North 278 320 6,700 -1,839 Descending Minneapolis Center
Mon 10:23:10 AM 41.3172 -93.3617 316° Northwest 282 325 5,900 -1,500 Descending Minneapolis Center
Mon 10:23:41 AM 41.3617 -93.3803 343° North 281 323 5,200 -1,355 Descending Minneapolis Center
Mon 10:24:12 AM 41.3853 -93.4097 317° Northwest 281 323 4,500 -1,377 Descending Minneapolis Center
Mon 10:24:42 AM 41.4269 -93.4256 344° North 273 314 3,800 -1,452 Descending Minneapolis Center
Mon 10:25:14 AM 41.4569 -93.4569 322° Northwest 271 312 3,000 -800 Descending Minneapolis Center
Mon 10:25:42 AM 41.4922 -93.4681 347° North 257 296 3,000  Level Minneapolis Center
Mon 10:26:16 AM 41.5147 -93.4867 328° Northwest 223 257 3,000  Level Minneapolis Center
Mon 10:26:43 AM 41.5425 -93.4889 357° North 176 203 3,000 -194 Level Minneapolis Center
Mon 10:27:18 AM 41.5656 -93.5075 329° Northwest 182 209 2,800 -393 Descending Minneapolis Center
Mon 10:27:44 AM 41.5847 -93.5214 332° Northwest 160 184 2,600 -484 Descending Minneapolis Center
Mon 10:28:20 AM 41.5819 -93.5592 264° West 167 192 2,300 -590 Descending Minneapolis Center
Mon 10:28:45 AM 41.5792 -93.5769 258° West 157 181 2,000 -774 Descending Minneapolis Center
Mon 10:29:22 AM 41.5594 -93.6114 233° Southwest 152 175 1,500 -700 Descending Minneapolis Center
Mon 10:29:45 AM 41.5569 -93.6219 252° West 143 165 1,300 -677 Descending Minneapolis Center
Mon 10:30:24 AM 41.5356 -93.6556 230° Southwest 148 170 800 -238 Descending Minneapolis Center
Mon 10:31:26 AM 41.5272 -93.6681 228° Southwest 38 44 900 48 Climbing Minneapolis Center
Mon 10:32:28 AM 41.5297 -93.6633 55° Northeast 19 22 900  Level Minneapolis Center

Login

Don't have an account? Register now (free) for customized features, flight alerts, and more!